To NAV CANADA Home Page Login to a new session Search on AWWS site Feedback and Comments Disclaimer Vers la page française équivalente Tips FAQ What's new on the site To the Forecasts and Observations / NOTAM section To "File a Flight Plan" website Publications and other links Update of the User's profile FIC Telephone Numbers My Weather Data Folder Route Weather Data Regional Weather Data Local Weather Data To the Forecasts and Observations / NOTAM section
Request Generated 08/22/2017 at 03:32:44 UTC . Weather information available at that time is displayed.

METAR/TAF

BURWASH/YT    (show WxCam)

METAR CYDB 220300Z AUTO 12014G27KT 9SM OVC130 15/07 A2969 RMK SLP073
DENSITY ALT 3500FT=
METAR CYDB 220200Z AUTO 11012G22KT 9SM BKN095 OVC150 15/08 A2968 RMK
SLP072 DENSITY ALT 3500FT=
METAR CYDB 220100Z 10011G17KT 30SM FEW060 BKN110 BKN130 16/07 A2968
RMK CU2AC3AC2 CLIMAT 18.5/7.5/0.0 LAST STFD OBS/NXT 221300Z SLP069
DENSITY ALT 3700FT=

TAF CYDB 212338Z 2200/2212 12015G25KT P6SM FEW040 SCT060 BKN150
BECMG 2202/2204 13008KT
FM220900 28005KT P6SM SCT030 BKN050
RMK NXT FCST BY 220600Z=
Your time UTC time
Weather data provided by Environment Canada and NAV CANADA